Flight Track Log - Related Links

Times and Time Zones

All times are in EDT time to prevent confusion due to time zone crossing. See the SWA208 flight status page for this flight to view local times or setup timezone preferences in your user account.

Time Position Orientation Groundspeed Altitude Reporting Facility
EDT Latitude Longitude Course Direction KTS MPH feet Rate Location/Type
Fri 11:30:16 PM 33.6525 -117.8828 196° South 146 168 1,500  Level Los Angeles Center
Fri 11:31:18 PM 33.6139 -117.8961 196° South 145 167 3,100 1,694 Climbing Los Angeles Center
Fri 11:32:20 PM 33.5639 -117.8928 177° South 184 212 5,000 3,220 Climbing Los Angeles Center
Fri 11:33:21 PM 33.4908 -117.8992 184° South 246 283 9,700 2,878 Climbing Los Angeles Center
Fri 11:34:23 PM 33.4406 -117.9794 233° Southwest 289 333 10,900 2,613 Climbing Los Angeles Center
Fri 11:35:25 PM 33.4333 -118.0928 266° West 342 394 15,100 3,000 Climbing Los Angeles Center
Fri 11:36:27 PM 33.4672 -118.2050 290° West 366 421 17,100 2,341 Climbing Los Angeles Center
Fri 11:37:28 PM 33.5422 -118.3133 310° West 415 478 19,900 2,829 Climbing Los Angeles Center
Fri 11:38:30 PM 33.6178 -118.4269 309° West 427 491 22,900 2,565 Climbing Los Angeles Center
Fri 11:39:32 PM 33.6961 -118.5456 308° West 441 507 25,200 1,500 Climbing Los Angeles Center
Fri 11:40:34 PM 33.7772 -118.6636 310° West 452 520 26,000 677 Climbing Los Angeles Center
Fri 11:41:36 PM 33.8575 -118.7839 309° West 457 526 26,600 1,122 Climbing Los Angeles Center
Fri 11:42:37 PM 33.9372 -118.9047 309° West 460 529 28,300 1,171 Climbing Los Angeles Center
Fri 11:43:39 PM 34.0325 -119.0478 309° West 458 527 29,000 341 Climbing Los Angeles Center
Fri 11:44:40 PM 34.0958 -119.1433 309° West 457 526 29,000 488 Level Los Angeles Center
Fri 11:45:42 PM 34.1900 -119.2864 309° West 455 524 30,000 581 Climbing Los Angeles Center
Fri 11:46:44 PM 34.2692 -119.4069 308° West 459 528 30,200 1,306 Climbing Los Angeles Center
Fri 11:47:46 PM 34.3611 -119.5100 317° Northwest 454 522 32,700 2,371 Climbing Los Angeles Center
Fri 11:48:48 PM 34.4494 -119.6133 316° Northwest 443 510 35,100 1,610 Climbing Los Angeles Center
Fri 11:49:49 PM 34.5553 -119.7347 317° Northwest 438 504 36,000 439 Climbing Los Angeles Center
Fri 11:50:51 PM 34.6436 -119.8325 318° Northwest 439 505 36,000  Level Los Angeles Center
Fri 11:51:53 PM 34.7325 -119.9328 317° Northwest 437 503 36,000  Level Los Angeles Center
Fri 11:52:54 PM 34.8022 -120.0133 317° Northwest 435 501 36,000  Level Los Angeles Center
Fri 11:53:56 PM 34.9083 -120.1347 317° Northwest 432 497 36,000  Level Los Angeles Center
Fri 11:54:58 PM 34.9936 -120.2339 316° Northwest 434 499 36,000  Level Los Angeles Center
Fri 11:55:59 PM 35.0800 -120.3339 317° Northwest 432 497 36,000  Level Los Angeles Center
Fri 11:57:01 PM 35.1836 -120.4544 316° Northwest 433 498 36,000  Level Los Angeles Center
Fri 11:58:02 PM 35.2706 -120.5575 316° Northwest 437 503 36,000  Level Los Angeles Center
Fri 11:59:04 PM 35.3583 -120.6600 316° Northwest 439 505 36,000  Level Los Angeles Center
Fri 11:59:19 PM 35.3836 -120.6908 315° West 440 506 36,000  Level Oakland Center
Sat 12:00:20 AM 35.4731 -120.7972 316° Northwest 444 511 36,000  Level Oakland Center
Sat 12:01:21 AM 35.5628 -120.9028 316° Northwest 446 513 36,000  Level Oakland Center
Sat 12:02:22 AM 35.6528 -121.0089 316° Northwest 446 513 36,000  Level Oakland Center
Sat 12:03:23 AM 35.7431 -121.1144 317° Northwest 449 517 36,000 -443 Level Oakland Center
Sat 12:04:24 AM 35.8456 -121.2011 326° Northwest 447 514 35,100 -934 Descending Oakland Center
Sat 12:05:25 AM 35.9481 -121.2869 326° Northwest 446 513 34,100 -934 Descending Oakland Center
Sat 12:06:26 AM 36.0519 -121.3742 326° Northwest 450 518 33,200 -885 Descending Oakland Center
Sat 12:07:27 AM 36.1542 -121.4619 325° Northwest 448 516 32,300 -934 Descending Oakland Center
Sat 12:08:28 AM 36.2608 -121.5497 326° Northwest 457 526 31,300 -942 Descending Oakland Center
Sat 12:09:28 AM 36.3642 -121.6425 324° Northwest 457 526 30,400 -1,686 Descending Oakland Center
Sat 12:10:29 AM 36.4925 -121.7478 327° Northwest 461 531 27,900 -2,872 Descending Oakland Center
Sat 12:11:02 AM 36.5500 -121.8000 324° Northwest 460 529 25,900 -3,484 Descending Northern Cal TRACON
Sat 12:12:02 AM 36.6500 -121.8833 326° Northwest 447 514 22,500 -3,350 Descending Northern Cal TRACON
Sat 12:13:02 AM 36.7500 -121.9667 326° Northwest 425 489 19,200 -3,100 Descending Northern Cal TRACON
Sat 12:14:02 AM 36.8667 -122.0000 347° North 402 463 16,300 -2,835 Descending Northern Cal TRACON
Sat 12:14:33 AM 36.9033 -122.0042 355° North 396 456 14,900 -2,870 Descending Oakland Center
Sat 12:15:34 AM 37.0094 -122.0314 348° North 392 451 11,900 -2,066 Descending Oakland Center
Sat 12:16:35 AM 37.1050 -122.0581 347° North 362 417 10,700 -984 Descending Oakland Center
Sat 12:17:36 AM 37.1906 -122.0808 348° North 325 374 9,900 -1,180 Descending Oakland Center
Sat 12:18:37 AM 37.2678 -122.0997 349° North 289 333 8,300 -1,426 Descending Oakland Center
Sat 12:19:38 AM 37.3583 -122.1261 347° North 279 321 7,000 -1,131 Descending Oakland Center
Sat 12:20:39 AM 37.4308 -122.1375 353° North 265 305 6,000 -1,033 Descending Oakland Center
Sat 12:21:40 AM 37.5000 -122.1272 North 250 288 4,900 -984 Descending Oakland Center
Sat 12:22:41 AM 37.5417 -122.1758 317° Northwest 231 266 4,000 -1,180 Descending Oakland Center
Sat 12:23:42 AM 37.5617 -122.2317 294° West 193 222 2,500 -1,328 Descending Oakland Center
Sat 12:24:43 AM 37.5817 -122.2842 296° West 177 204 1,300 -984 Descending Oakland Center
Sat 12:25:44 AM 37.6008 -122.3311 297° West 165 190 500 -545 Descending Oakland Center
Sat 12:26:44 AM 37.6164 -122.3686 298° West 156 180 200 -300 Descending Oakland Center
Sat 12:28:00 AM 37.6167 -122.3667 322° Northwest  Level FlightAware Approximate
Sat 12:35:00 AM 37.6191 -122.3752 322° Northwest  Level Estimated

Login

Don't have an account? Register now (free) for customized features, flight alerts, and more!